Boyleston, Illinois
Current Conditions -  °F | °C
As of 8:55 AM on Sunday 21 Dec 2014 (Local Time) from KFWC Reporting Station
Haze Haze  
Wind Chill: 26°   Ceiling: Unl
Heat Index: 32°   Visibility: 5mi
Dew Point: 28°   Wind: 6mph
Humidity: 87%   Direction: 120°ESE
Pressure: 30.25"   Gusts: NA
Location:  38.3669°N, 88.3516°W
Report Text: KFWC 211455Z AUTO 12005KT 5SM BR CLR 00/M02 A3025 RMK AO1 T10021021
Loading
Personal Weather Stations






























Interactive Weather Map New forecast layout! Learn more

10-Day Weather Forecast

Advertisements
Track Severe Weather on mobile